Time;durP1;ratioP1;P1;durP2;ratioP2;P2;SDS_P1;SDS_P2;PMS_P1;PMS_P2;Temp;Humidity;BMP_temperature;BMP_pressure;BME280_temperature;BME280_humidity;BME280_pressure;Samples;Min_cycle;Max_cycle;Signal;HPM_P1;HPM_P2
2022/11/26 00:00:52;;;;;;;10.70;3.22;;;2.70;99.90;;;;;;4979209;28;20737;-76
2022/11/26 00:03:18;;;;;;;17.55;3.53;;;2.80;99.90;;;;;;4958240;28;20037;-76
2022/11/26 00:05:47;;;;;;;12.13;2.72;;;2.70;99.90;;;;;;4977332;28;20470;-76
2022/11/26 00:08:24;;;;;;;11.20;3.10;;;2.80;99.90;;;;;;4994921;28;20034;-76
2022/11/26 00:10:52;;;;;;;12.35;3.17;;;2.80;99.90;;;;;;4994689;28;20019;-76
2022/11/26 00:13:22;;;;;;;13.23;3.47;;;2.80;99.90;;;;;;4994717;28;20030;-76
2022/11/26 00:15:48;;;;;;;13.13;3.20;;;2.80;99.90;;;;;;4994577;28;20104;-76
2022/11/26 00:18:18;;;;;;;15.20;3.50;;;2.90;99.90;;;;;;4983911;28;20377;-76
2022/11/26 00:20:44;;;;;;;24.23;3.92;;;3.00;99.90;;;;;;4975115;28;20493;-76
2022/11/26 00:23:22;;;;;;;16.38;3.33;;;2.90;99.90;;;;;;4957743;28;20023;-76
2022/11/26 00:25:53;;;;;;;14.02;3.72;;;3.00;1.00;;;;;;4974892;28;20027;-76
2022/11/26 00:28:29;;;;;;;15.50;3.53;;;3.00;1.00;;;;;;4994645;28;20050;-76
2022/11/26 00:30:58;;;;;;;18.70;3.30;;;3.00;1.00;;;;;;4976804;28;20031;-76
2022/11/26 00:33:24;;;;;;;13.50;3.30;;;3.00;1.00;;;;;;4994651;28;20068;-76
2022/11/26 00:36:00;;;;;;;9.63;2.95;;;3.00;1.00;;;;;;4994202;28;20022;-76
2022/11/26 00:38:26;;;;;;;18.42;4.25;;;3.00;1.00;;;;;;4976911;28;20042;-76
2022/11/26 00:40:52;;;;;;;19.08;2.97;;;2.90;99.90;;;;;;4994117;28;20381;-76
2022/11/26 00:43:17;;;;;;;17.83;3.95;;;2.90;99.90;;;;;;4994198;28;20465;-76
2022/11/26 00:45:46;;;;;;;14.98;3.05;;;2.90;99.90;;;;;;4994169;28;20026;-76
2022/11/26 00:48:12;;;;;;;20.45;3.28;;;2.90;99.90;;;;;;4993880;28;20078;-76
2022/11/26 00:50:47;;;;;;;11.80;2.80;;;2.80;99.90;;;;;;4994024;28;20030;-76
2022/11/26 00:53:16;;;;;;;16.15;3.15;;;2.80;99.90;;;;;;4994047;28;20030;-76
2022/11/26 00:55:45;;;;;;;10.35;2.65;;;2.90;99.90;;;;;;4993695;28;20354;-76
2022/11/26 00:58:27;;;;;;;10.57;2.88;;;2.90;99.90;;;;;;4993883;28;20030;-76
2022/11/26 01:00:55;;;;;;;14.20;3.58;;;2.90;99.90;;;;;;4974445;28;20038;-76
2022/11/26 01:03:21;;;;;;;10.13;3.00;;;2.80;99.90;;;;;;4974385;28;20015;-76
2022/11/26 01:05:51;;;;;;;13.50;3.25;;;2.90;99.90;;;;;;4974320;28;20019;-76
2022/11/26 01:08:34;;;;;;;16.85;3.28;;;2.90;99.90;;;;;;4974334;28;20034;-76
2022/11/26 01:11:03;;;;;;;13.75;3.65;;;2.90;99.90;;;;;;4974293;28;20026;-76
2022/11/26 01:13:29;;;;;;;12.45;3.95;;;3.00;99.90;;;;;;4991504;28;20019;-76
2022/11/26 01:15:57;;;;;;;9.68;3.25;;;2.90;1.00;;;;;;4993424;28;20408;-76
2022/11/26 01:18:23;;;;;;;13.93;3.20;;;3.00;1.00;;;;;;4993561;28;20046;-76
2022/11/26 01:20:49;;;;;;;9.52;3.55;;;2.80;99.90;;;;;;4993461;28;20026;-76
2022/11/26 01:23:17;;;;;;;11.32;3.35;;;2.90;99.90;;;;;;4993328;28;20022;-76
2022/11/26 01:25:43;;;;;;;10.63;3.10;;;2.80;99.90;;;;;;4993312;28;20053;-76
2022/11/26 01:28:12;;;;;;;15.02;3.53;;;2.70;99.90;;;;;;4993394;28;20061;-76
2022/11/26 01:30:38;;;;;;;16.48;3.35;;;2.70;99.90;;;;;;4993321;28;20053;-76
2022/11/26 01:33:03;;;;;;;17.70;4.82;;;2.80;99.90;;;;;;4993311;28;20026;-76
2022/11/26 01:35:30;;;;;;;15.55;3.72;;;2.70;99.90;;;;;;4993165;28;20030;-76
2022/11/26 01:37:55;;;;;;;12.23;3.45;;;2.80;99.90;;;;;;4993121;28;20480;-76
2022/11/26 01:40:24;;;;;;;8.25;2.80;;;2.80;99.90;;;;;;4993113;28;20026;-76
2022/11/26 01:43:10;;;;;;;10.23;3.33;;;2.60;99.90;;;;;;4993191;28;20026;-76
2022/11/26 01:45:36;;;;;;;15.20;3.40;;;2.60;99.90;;;;;;4993001;28;20037;-76
2022/11/26 01:48:11;;;;;;;10.02;2.90;;;2.70;99.90;;;;;;4992069;28;20050;-76
2022/11/26 01:50:49;;;;;;;15.35;3.38;;;2.70;99.90;;;;;;4993079;28;20105;-76
2022/11/26 01:53:25;;;;;;;19.20;3.10;;;2.60;99.90;;;;;;4993116;28;20042;-76
2022/11/26 01:55:56;;;;;;;20.95;3.60;;;2.70;99.90;;;;;;4992782;28;20038;-76
2022/11/26 01:58:27;;;;;;;;;;;2.70;99.90;;;;;;4991117;28;20022;-76
2022/11/26 02:00:53;;;;;;;17.58;3.58;;;2.80;99.90;;;;;;4984289;28;19932;-76
2022/11/26 02:03:19;;;;;;;10.13;3.05;;;2.80;99.90;;;;;;4988641;28;20461;-76
2022/11/26 02:05:56;;;;;;;13.98;3.35;;;2.90;99.90;;;;;;4992769;28;20029;-76
2022/11/26 02:08:25;;;;;;;23.08;3.67;;;2.80;99.90;;;;;;4975416;28;20043;-76
2022/11/26 02:10:51;;;;;;;8.70;2.88;;;2.80;99.90;;;;;;4992830;28;20022;-76
2022/11/26 02:13:17;;;;;;;15.48;3.90;;;2.80;99.90;;;;;;4992854;28;20113;-76
2022/11/26 02:15:58;;;;;;;11.35;3.17;;;2.80;99.90;;;;;;4982213;28;20537;-76
2022/11/26 02:18:24;;;;;;;;;;;2.90;99.90;;;;;;4997460;28;20038;-76
2022/11/26 02:21:11;;;;;;;12.43;3.92;;;2.70;99.90;;;;;;4996790;28;19905;-76
2022/11/26 02:23:59;;;;;;;11.40;2.92;;;2.80;99.90;;;;;;4996776;28;20030;-76
2022/11/26 02:27:02;;;;;;;15.23;3.15;;;2.80;99.90;;;;;;4996991;28;20441;-76
2022/11/26 02:29:58;;;;;;;13.32;3.50;;;2.90;99.90;;;;;;4996775;28;20037;-76
2022/11/26 02:32:33;;;;;;;12.70;3.75;;;2.70;99.90;;;;;;4991993;28;20076;-76
2022/11/26 02:35:11;;;;;;;14.65;3.72;;;2.80;99.90;;;;;;4996724;28;20060;-76
2022/11/26 02:37:46;;;;;;;13.85;3.88;;;2.80;99.90;;;;;;4996449;28;20466;-76
2022/11/26 02:40:11;;;;;;;13.90;3.40;;;2.80;99.90;;;;;;4996665;28;20022;-76
2022/11/26 02:42:37;;;;;;;18.88;3.95;;;2.70;99.90;;;;;;4996390;28;20080;-76
2022/11/26 02:45:07;;;;;;;19.88;3.40;;;2.80;99.90;;;;;;4996364;28;20018;-76
2022/11/26 02:47:35;;;;;;;12.40;3.70;;;2.80;99.90;;;;;;4995232;28;20413;-76
2022/11/26 02:50:06;;;;;;;17.38;4.18;;;2.90;99.90;;;;;;4997290;28;20035;-76
2022/11/26 02:52:33;;;;;;;23.92;3.90;;;3.00;1.00;;;;;;4996127;28;20023;-76
2022/11/26 02:55:02;;;;;;;12.45;3.40;;;2.80;99.90;;;;;;4995919;28;20034;-76
2022/11/26 02:57:31;;;;;;;18.98;3.85;;;2.90;99.90;;;;;;4983212;28;20157;-76
2022/11/26 02:59:57;;;;;;;16.33;3.60;;;3.00;1.00;;;;;;4976623;28;20031;-75
2022/11/26 03:02:32;;;;;;;14.27;3.42;;;3.00;1.00;;;;;;4976814;28;20015;-76
2022/11/26 03:05:01;;;;;;;14.65;3.88;;;3.20;1.00;;;;;;4976583;28;20022;-76
2022/11/26 03:07:29;;;;;;;17.88;4.97;;;3.30;1.00;;;;;;4983470;28;20027;-76
2022/11/26 03:10:00;;;;;;;21.92;4.45;;;3.50;1.00;;;;;;4994182;28;20046;-76
2022/11/26 03:12:27;;;;;;;15.05;4.30;;;3.60;1.00;;;;;;4995329;28;20027;-76
2022/11/26 03:14:53;;;;;;;14.25;4.15;;;3.50;1.00;;;;;;4987163;28;20512;-76
2022/11/26 03:17:18;;;;;;;15.52;3.83;;;3.50;1.00;;;;;;4976176;28;20081;-76
2022/11/26 03:19:45;;;;;;;16.52;4.10;;;3.40;1.00;;;;;;4976327;28;20468;-76
2022/11/26 03:22:12;;;;;;;17.02;3.85;;;3.40;1.00;;;;;;4978449;28;20105;-76
2022/11/26 03:24:38;;;;;;;23.58;4.22;;;3.40;1.00;;;;;;4995400;28;20034;-76
2022/11/26 03:27:03;;;;;;;14.75;4.28;;;3.40;1.00;;;;;;4995470;28;20034;-76
2022/11/26 03:29:29;;;;;;;19.92;4.65;;;3.50;1.00;;;;;;4995514;28;20022;-76
2022/11/26 03:31:55;;;;;;;25.23;5.35;;;3.60;1.00;;;;;;4995364;28;20050;-76
2022/11/26 03:34:21;;;;;;;16.65;3.78;;;3.50;1.00;;;;;;4995359;28;20101;-76
2022/11/26 03:36:46;;;;;;;26.25;4.75;;;3.60;1.00;;;;;;4985187;28;20027;-76
2022/11/26 03:39:12;;;;;;;18.15;3.70;;;3.60;1.00;;;;;;4987418;28;20492;-76
2022/11/26 03:41:38;;;;;;;17.30;4.10;;;3.60;1.00;;;;;;4995431;28;20030;-76
2022/11/26 03:44:04;;;;;;;14.20;3.67;;;3.40;1.00;;;;;;4995186;28;20465;-76
2022/11/26 03:46:30;;;;;;;13.00;3.45;;;3.40;1.00;;;;;;4995333;28;20031;-76
2022/11/26 03:48:55;;;;;;;14.57;2.92;;;3.30;1.00;;;;;;4994041;28;20057;-76
2022/11/26 03:51:21;;;;;;;15.05;3.80;;;3.20;1.00;;;;;;4995231;28;20058;-76
2022/11/26 03:53:46;;;;;;;17.02;3.75;;;3.20;1.00;;;;;;4994863;28;20389;-76
2022/11/26 03:56:12;;;;;;;18.25;4.18;;;3.20;1.00;;;;;;4979150;28;20035;-76
2022/11/26 03:58:37;;;;;;;13.65;4.10;;;3.20;1.00;;;;;;4975490;28;20034;-76
2022/11/26 04:01:08;;;;;;;20.33;4.10;;;3.10;1.00;;;;;;4976212;28;20059;-76
2022/11/26 04:03:34;;;;;;;14.75;3.72;;;3.20;1.00;;;;;;4994962;28;20173;-76
2022/11/26 04:05:59;;;;;;;13.50;4.20;;;3.20;1.00;;;;;;4994933;28;20452;-76
2022/11/26 04:08:25;;;;;;;14.68;3.80;;;3.20;1.00;;;;;;4994829;28;20122;-75
2022/11/26 04:10:50;;;;;;;17.38;3.80;;;3.20;1.00;;;;;;4994911;28;20045;-76
2022/11/26 04:13:16;;;;;;;16.98;4.15;;;3.20;1.00;;;;;;4994773;28;20062;-76
2022/11/26 04:15:42;;;;;;;16.27;4.28;;;3.30;1.00;;;;;;4994783;28;20377;-76
2022/11/26 04:18:07;;;;;;;15.60;4.03;;;3.40;1.00;;;;;;4971874;28;20039;-76
2022/11/26 04:20:33;;;;;;;20.52;5.20;;;3.30;1.00;;;;;;4975253;28;20027;-76
2022/11/26 04:22:58;;;;;;;19.55;4.40;;;3.40;1.00;;;;;;4974971;28;20110;-76
2022/11/26 04:25:25;;;;;;;17.55;4.63;;;3.40;1.00;;;;;;4975130;28;20034;-76
2022/11/26 04:27:50;;;;;;;18.58;5.15;;;3.40;1.00;;;;;;4975415;28;20019;-76
2022/11/26 04:30:16;;;;;;;16.52;4.68;;;3.40;1.00;;;;;;4957648;28;20056;-76
2022/11/26 04:32:42;;;;;;;17.10;4.78;;;3.50;1.00;;;;;;4975043;28;20049;-76
2022/11/26 04:35:08;;;;;;;22.42;4.95;;;3.50;1.00;;;;;;4974876;28;20027;-76
2022/11/26 04:37:34;;;;;;;19.67;4.85;;;3.70;1.00;;;;;;4974850;28;20039;-76
2022/11/26 04:40:00;;;;;;;17.73;5.20;;;3.80;1.00;;;;;;4974202;28;20038;-76
2022/11/26 04:42:26;;;;;;;29.80;5.85;;;3.90;1.00;;;;;;4974794;28;20027;-76
2022/11/26 04:44:51;;;;;;;48.67;6.50;;;3.80;1.00;;;;;;4974692;28;20147;-76
2022/11/26 04:47:17;;;;;;;393.02;26.67;;;3.90;1.00;;;;;;4974397;28;20054;-76
2022/11/26 04:49:42;;;;;;;42.15;6.90;;;3.80;1.00;;;;;;4974737;28;20382;-76
2022/11/26 04:52:08;;;;;;;375.63;25.33;;;3.60;1.00;;;;;;4974676;28;20037;-76
2022/11/26 04:54:34;;;;;;;25.60;6.05;;;3.60;1.00;;;;;;4974624;28;20057;-76
2022/11/26 04:57:00;;;;;;;62.70;7.45;;;3.60;1.00;;;;;;4974446;28;20070;-76
2022/11/26 04:59:25;;;;;;;77.57;10.10;;;3.70;1.00;;;;;;4974457;28;20026;-76
2022/11/26 05:01:51;;;;;;;17.08;4.82;;;3.70;1.00;;;;;;4974466;28;20110;-76
2022/11/26 05:04:16;;;;;;;24.23;4.85;;;3.80;1.00;;;;;;4974391;28;20030;-76
2022/11/26 05:06:42;;;;;;;14.73;4.32;;;3.80;1.00;;;;;;4974469;28;20097;-76
2022/11/26 05:09:08;;;;;;;25.38;5.40;;;3.80;1.00;;;;;;4974341;28;20031;-76
2022/11/26 05:11:33;;;;;;;21.85;5.03;;;3.70;1.00;;;;;;4974282;28;20378;-76
2022/11/26 05:13:59;;;;;;;20.27;4.85;;;3.70;1.00;;;;;;4974219;28;20110;-76
2022/11/26 05:16:24;;;;;;;16.95;5.00;;;3.60;1.00;;;;;;4988944;28;20038;-76
2022/11/26 05:18:50;;;;;;;18.85;5.45;;;3.70;1.00;;;;;;4993592;28;20026;-76
2022/11/26 05:21:15;;;;;;;25.58;5.40;;;3.80;1.00;;;;;;4993335;28;20111;-76
2022/11/26 05:23:41;;;;;;;16.00;4.93;;;3.70;1.00;;;;;;4993466;28;20026;-76
2022/11/26 05:26:07;;;;;;;18.55;5.20;;;3.70;1.00;;;;;;4993421;28;20653;-76
2022/11/26 05:28:32;;;;;;;15.15;4.47;;;3.70;1.00;;;;;;4993455;28;20022;-76
2022/11/26 05:31:02;;;;;;;18.80;5.35;;;3.60;1.00;;;;;;4993314;28;20026;-76
2022/11/26 05:33:29;;;;;;;19.52;5.07;;;3.40;1.00;;;;;;4993389;28;20026;-76
2022/11/26 05:35:54;;;;;;;14.13;4.93;;;3.50;1.00;;;;;;4993019;28;20105;-76
2022/11/26 05:38:21;;;;;;;21.08;4.88;;;3.50;1.00;;;;;;4993240;28;20176;-76
2022/11/26 05:40:46;;;;;;;22.25;5.43;;;3.50;1.00;;;;;;4993137;28;20046;-76
2022/11/26 05:43:12;;;;;;;27.90;5.35;;;3.60;1.00;;;;;;4993244;28;20468;-76
2022/11/26 05:45:38;;;;;;;22.77;4.80;;;3.50;1.00;;;;;;4992993;28;20034;-76
2022/11/26 05:48:04;;;;;;;18.75;5.40;;;3.60;1.00;;;;;;4992982;28;20043;-76
2022/11/26 05:50:30;;;;;;;179.98;12.55;;;3.50;1.00;;;;;;4992242;28;20028;-76
2022/11/26 05:52:56;;;;;;;52.47;7.22;;;3.60;1.00;;;;;;4993181;28;20380;-76
2022/11/26 05:55:22;;;;;;;46.83;6.10;;;3.60;1.00;;;;;;4976790;28;20118;-76
2022/11/26 05:57:47;;;;;;;15.85;4.50;;;3.70;1.00;;;;;;4974179;28;20019;-76
2022/11/26 06:00:13;;;;;;;10.60;4.00;;;3.60;1.00;;;;;;4973549;28;20098;-76
2022/11/26 06:02:39;;;;;;;16.30;4.30;;;3.60;1.00;;;;;;4973513;28;20019;-76
2022/11/26 06:05:05;;;;;;;17.50;4.78;;;3.60;1.00;;;;;;4973508;28;20046;-76
2022/11/26 06:07:31;;;;;;;19.90;6.07;;;3.60;1.00;;;;;;4973446;28;20038;-76
2022/11/26 06:09:57;;;;;;;27.15;5.47;;;3.50;1.00;;;;;;4973384;28;20034;-76
2022/11/26 06:12:23;;;;;;;20.52;5.38;;;3.50;1.00;;;;;;4973375;28;20106;-76
2022/11/26 06:14:49;;;;;;;14.35;4.80;;;3.50;1.00;;;;;;4973512;28;20027;-75
2022/11/26 06:17:14;;;;;;;13.75;4.70;;;3.40;1.00;;;;;;4973319;28;20049;-76
2022/11/26 06:19:40;;;;;;;14.90;4.50;;;3.50;1.00;;;;;;4973639;28;20019;-76
2022/11/26 06:22:06;;;;;;;19.98;5.10;;;3.50;1.00;;;;;;4985199;28;20023;-76
2022/11/26 06:24:32;;;;;;;19.98;5.28;;;3.50;1.00;;;;;;4992654;28;20027;-76
2022/11/26 06:26:57;;;;;;;19.58;4.82;;;3.60;1.00;;;;;;4992671;28;20101;-76
2022/11/26 06:29:23;;;;;;;20.95;4.85;;;3.60;1.00;;;;;;4992665;28;20076;-76
2022/11/26 06:31:48;;;;;;;19.38;5.32;;;3.60;1.00;;;;;;4992709;28;20022;-75
2022/11/26 06:34:15;;;;;;;25.15;5.50;;;3.60;1.00;;;;;;4992685;28;20169;-76
2022/11/26 06:36:40;;;;;;;16.90;4.65;;;3.70;1.00;;;;;;4992486;28;20030;-76
2022/11/26 06:39:06;;;;;;;20.33;5.88;;;3.70;1.00;;;;;;4992621;28;20014;-76
2022/11/26 06:41:31;;;;;;;18.17;5.50;;;3.60;1.00;;;;;;4988305;28;20026;-76
2022/11/26 06:43:58;;;;;;;23.08;5.40;;;3.60;1.00;;;;;;4973209;28;20019;-76
2022/11/26 06:46:24;;;;;;;18.58;5.55;;;3.50;1.00;;;;;;4973050;28;20397;-76
2022/11/26 06:48:50;;;;;;;30.10;6.18;;;3.60;1.00;;;;;;4973291;28;20500;-76
2022/11/26 06:51:19;;;;;;;18.05;6.03;;;3.50;1.00;;;;;;4977703;28;20090;-76
2022/11/26 06:53:45;;;;;;;18.60;6.05;;;3.60;1.00;;;;;;4994967;28;20037;-76
2022/11/26 06:56:13;;;;;;;20.10;6.38;;;3.60;1.00;;;;;;5011887;28;20018;-76
2022/11/26 06:58:38;;;;;;;28.63;6.55;;;3.60;1.00;;;;;;5011841;28;20038;-76
2022/11/26 07:01:13;;;;;;;22.15;6.47;;;3.70;1.00;;;;;;5011680;28;20026;-76
2022/11/26 07:03:38;;;;;;;22.35;6.07;;;3.70;1.00;;;;;;5015551;28;20439;-76
2022/11/26 07:06:04;;;;;;;26.00;6.38;;;3.80;1.00;;;;;;5015583;28;20485;-76
2022/11/26 07:08:30;;;;;;;24.38;6.82;;;3.80;1.00;;;;;;5015609;28;20018;-76
2022/11/26 07:11:00;;;;;;;46.95;7.78;;;3.80;1.00;;;;;;5015557;28;20088;-76
2022/11/26 07:13:26;;;;;;;42.38;7.18;;;3.90;1.00;;;;;;5015635;28;20021;-76
2022/11/26 07:15:51;;;;;;;28.73;7.18;;;3.90;1.00;;;;;;5015505;28;20499;-76
2022/11/26 07:18:17;;;;;;;22.90;6.25;;;3.80;1.00;;;;;;5015440;28;20058;-76
2022/11/26 07:20:43;;;;;;;19.75;6.15;;;3.80;1.00;;;;;;5015374;28;20076;-76
2022/11/26 07:23:08;;;;;;;23.25;6.40;;;3.90;1.00;;;;;;5015098;28;20026;-76
2022/11/26 07:25:35;;;;;;;24.00;6.80;;;4.00;1.00;;;;;;4976249;28;20105;-76
2022/11/26 07:28:01;;;;;;;22.90;6.60;;;4.00;1.00;;;;;;4976170;28;20023;-76
2022/11/26 07:30:26;;;;;;;23.05;6.15;;;4.20;1.00;;;;;;4976167;28;20105;-77
2022/11/26 07:32:53;;;;;;;20.02;6.15;;;4.10;1.00;;;;;;4976179;28;20034;-77
2022/11/26 07:35:19;;;;;;;27.20;6.22;;;4.20;1.00;;;;;;4975992;28;20023;-76
2022/11/26 07:37:44;;;;;;;21.65;6.13;;;4.30;1.00;;;;;;4975837;28;20054;-76
2022/11/26 07:40:10;;;;;;;19.00;6.57;;;4.40;1.00;;;;;;4975919;28;20351;-76
2022/11/26 07:42:36;;;;;;;19.52;6.97;;;4.50;1.00;;;;;;4975865;28;20034;-76
2022/11/26 07:45:03;;;;;;;27.33;6.55;;;4.60;1.00;;;;;;4958389;28;20025;-76
2022/11/26 07:47:28;;;;;;;19.65;6.68;;;4.80;1.00;;;;;;4975822;28;20501;-76
2022/11/26 07:49:54;;;;;;;24.27;6.60;;;4.80;1.00;;;;;;4975936;28;20102;-77
2022/11/26 07:52:20;;;;;;;21.73;5.88;;;4.80;99.90;;;;;;4975726;28;20639;-76
2022/11/26 07:54:45;;;;;;;24.17;6.20;;;4.90;99.90;;;;;;4975798;28;20027;-77
2022/11/26 07:57:11;;;;;;;23.42;6.50;;;5.10;99.90;;;;;;4982242;28;20034;-76
2022/11/26 07:59:36;;;;;;;25.13;7.25;;;5.20;99.90;;;;;;4991467;28;20023;-76
2022/11/26 08:02:02;;;;;;;25.08;5.95;;;5.20;99.90;;;;;;4981366;28;20028;-76
2022/11/26 08:04:27;;;;;;;21.77;7.03;;;5.60;99.90;;;;;;4977387;28;20022;-77
2022/11/26 08:06:53;;;;;;;24.02;7.28;;;5.60;99.90;;;;;;4994853;28;20038;-76
2022/11/26 08:09:19;;;;;;;22.95;8.25;;;5.70;99.90;;;;;;4994809;28;20033;-76
2022/11/26 08:11:44;;;;;;;25.48;7.65;;;5.80;99.90;;;;;;4994832;28;20022;-77
2022/11/26 08:14:11;;;;;;;26.15;7.60;;;5.90;99.90;;;;;;4993684;28;20617;-77
2022/11/26 08:16:38;;;;;;;26.88;7.47;;;6.10;99.90;;;;;;4994726;28;20022;-76
2022/11/26 08:19:06;;;;;;;27.23;8.25;;;6.10;99.90;;;;;;4994592;28;20473;-77
2022/11/26 08:21:32;;;;;;;19.65;7.22;;;6.20;99.90;;;;;;4994575;28;20101;-77
2022/11/26 08:23:58;;;;;;;25.20;7.70;;;6.30;99.90;;;;;;4994670;28;20026;-77
2022/11/26 08:26:24;;;;;;;28.20;8.20;;;6.40;99.90;;;;;;4994566;28;20032;-76
2022/11/26 08:28:50;;;;;;;31.10;8.02;;;6.50;99.90;;;;;;4994563;28;20027;-76
2022/11/26 08:31:16;;;;;;;23.60;8.07;;;6.70;99.90;;;;;;4994645;28;20019;-77
2022/11/26 08:33:42;;;;;;;21.85;7.68;;;7.00;99.90;;;;;;4994265;28;20033;-77
2022/11/26 08:36:08;;;;;;;23.48;8.60;;;7.10;99.90;;;;;;4994358;28;20073;-76
2022/11/26 08:38:35;;;;;;;26.73;8.18;;;7.30;99.90;;;;;;4994198;28;20032;-76
2022/11/26 08:41:05;;;;;;;25.83;8.63;;;7.30;99.90;;;;;;4994352;28;20026;-77
2022/11/26 08:43:32;;;;;;;26.05;8.60;;;7.40;99.90;;;;;;4994206;28;20034;-77
2022/11/26 08:45:59;;;;;;;31.90;9.50;;;7.30;99.90;;;;;;4993851;28;20138;-77
2022/11/26 08:48:27;;;;;;;25.98;8.07;;;7.40;99.90;;;;;;4993700;28;20050;-77
2022/11/26 08:51:04;;;;;;;35.90;10.27;;;7.30;99.90;;;;;;4994056;28;20233;-77
2022/11/26 08:53:31;;;;;;;27.88;8.20;;;7.40;99.90;;;;;;4993880;28;20042;-77
2022/11/26 08:56:00;;;;;;;25.50;8.95;;;7.30;99.90;;;;;;4993983;28;20547;-77
2022/11/26 08:58:26;;;;;;;32.08;12.13;;;7.30;99.90;;;;;;4977876;28;20070;-77
2022/11/26 09:00:51;;;;;;;31.80;10.93;;;7.30;99.90;;;;;;4974089;28;20062;-77
2022/11/26 09:03:17;;;;;;;29.10;10.98;;;7.40;99.90;;;;;;4973369;28;20066;-77
2022/11/26 09:05:42;;;;;;;29.02;10.30;;;7.40;99.90;;;;;;4973367;28;20027;-77
2022/11/26 09:08:08;;;;;;;24.33;9.63;;;7.40;99.90;;;;;;4973465;28;20070;-77
2022/11/26 09:10:33;;;;;;;26.75;8.60;;;7.50;99.90;;;;;;4973451;28;20026;-77
2022/11/26 09:12:59;;;;;;;27.73;9.07;;;7.40;99.90;;;;;;4973430;28;20421;-77
2022/11/26 09:15:25;;;;;;;22.85;8.35;;;7.40;99.90;;;;;;4973713;28;20082;-76
2022/11/26 09:17:50;;;;;;;30.77;8.82;;;7.50;99.90;;;;;;4974100;28;20039;-77
2022/11/26 09:20:16;;;;;;;35.53;9.23;;;7.50;99.90;;;;;;4974105;28;20019;-77
2022/11/26 09:22:41;;;;;;;25.42;9.20;;;7.50;99.90;;;;;;4974036;28;20023;-77
2022/11/26 09:25:08;;;;;;;33.08;9.20;;;7.50;99.90;;;;;;4993118;28;20413;-77
2022/11/26 09:27:34;;;;;;;35.13;9.55;;;7.60;99.90;;;;;;4993613;28;20072;-77
2022/11/26 09:29:59;;;;;;;26.20;9.57;;;7.60;99.90;;;;;;4989587;28;20110;-77
2022/11/26 09:32:25;;;;;;;26.48;9.48;;;7.70;99.90;;;;;;4993259;28;20491;-77
2022/11/26 09:34:51;;;;;;;28.08;10.00;;;7.70;99.90;;;;;;4993320;28;20641;-77
2022/11/26 09:37:17;;;;;;;35.08;9.82;;;7.70;99.90;;;;;;4993156;28;20113;-77
2022/11/26 09:39:43;;;;;;;31.08;10.23;;;7.80;99.90;;;;;;4993252;28;20101;-77
2022/11/26 09:42:30;;;;;;;31.63;10.35;;;7.90;99.90;;;;;;4993180;28;21986;-77
2022/11/26 09:45:07;;;;;;;37.03;12.70;;;7.90;99.90;;;;;;4989376;28;20027;-77
2022/11/26 09:47:42;;;;;;;30.77;11.00;;;8.00;99.90;;;;;;4981550;28;20062;-78
2022/11/26 09:50:13;;;;;;;33.22;10.88;;;7.90;99.90;;;;;;4993575;28;20023;-75
2022/11/26 09:52:57;;;;;;;33.80;9.88;;;8.00;99.90;;;;;;4992982;28;20033;-75
2022/11/26 09:55:29;;;;;;;25.45;10.98;;;8.10;99.90;;;;;;4993083;28;20034;-75
2022/11/26 09:58:13;;;;;;;29.65;11.38;;;8.10;99.90;;;;;;4992868;28;20055;-75
2022/11/26 10:00:43;;;;;;;30.98;11.20;;;8.20;99.90;;;;;;4992990;28;20030;-75
2022/11/26 10:03:24;;;;;;;28.63;11.97;;;8.20;99.90;;;;;;4992975;28;20026;-75
2022/11/26 10:06:07;;;;;;;31.00;10.70;;;8.30;99.90;;;;;;4992794;28;20043;-75
2022/11/26 10:08:41;;;;;;;29.75;11.52;;;8.20;99.90;;;;;;4975326;28;20029;-75
2022/11/26 10:11:11;;;;;;;28.10;11.68;;;8.30;99.90;;;;;;4992786;28;20031;-75
2022/11/26 10:13:44;;;;;;;26.92;11.52;;;8.40;99.90;;;;;;4992856;28;20073;-75
2022/11/26 10:16:24;;;;;;;30.58;11.10;;;8.40;99.90;;;;;;4993029;28;20022;-75
2022/11/26 10:19:13;;;;;;;39.00;12.13;;;8.40;99.90;;;;;;4992847;28;20027;-75
2022/11/26 10:21:39;;;;;;;33.53;13.60;;;8.50;99.90;;;;;;4992838;28;20058;-75
2022/11/26 10:24:05;;;;;;;26.25;11.90;;;8.60;99.90;;;;;;4992770;28;20065;-75
2022/11/26 10:26:37;;;;;;;33.05;13.20;;;8.80;99.90;;;;;;4992759;28;20054;-75
2022/11/26 10:29:25;;;;;;;31.40;11.52;;;8.80;99.90;;;;;;4992732;28;20617;-75
2022/11/26 10:31:58;;;;;;;31.33;12.75;;;8.80;99.90;;;;;;4992778;28;20038;-75
2022/11/26 10:34:41;;;;;;;24.38;11.93;;;8.90;99.90;;;;;;4992490;28;20019;-75
2022/11/26 10:37:07;;;;;;;27.40;11.68;;;8.90;99.90;;;;;;4994750;28;20046;-77
2022/11/26 10:39:33;;;;;;;28.88;11.93;;;8.90;99.90;;;;;;4997530;28;20097;-77
2022/11/26 10:42:38;;;;;;;26.60;10.40;;;9.00;99.90;;;;;;4997510;28;20027;-77
2022/11/26 10:45:20;;;;;;;40.00;10.90;;;8.90;99.90;;;;;;4960212;28;20043;-78
2022/11/26 10:47:45;;;;;;;29.85;12.02;;;9.00;99.90;;;;;;4997189;28;20061;-75
2022/11/26 10:50:20;;;;;;;24.73;10.73;;;9.00;99.90;;;;;;4996633;28;20022;-75
2022/11/26 10:52:46;;;;;;;33.00;11.65;;;9.10;99.90;;;;;;4996396;28;20022;-75
2022/11/26 10:55:31;;;;;;;31.75;12.75;;;9.10;99.90;;;;;;4995764;28;20022;-75
2022/11/26 10:58:04;;;;;;;25.85;10.57;;;9.00;99.90;;;;;;4993203;28;20034;-75
2022/11/26 11:01:02;;;;;;;34.15;11.38;;;9.00;99.90;;;;;;4990400;28;20109;-75
2022/11/26 11:03:35;;;;;;;25.83;10.35;;;9.00;99.90;;;;;;4944858;28;20043;-76
2022/11/26 11:06:19;;;;;;;28.98;10.60;;;9.00;99.90;;;;;;4994499;28;20031;-75
2022/11/26 11:08:50;;;;;;;28.33;10.27;;;9.00;99.90;;;;;;4976539;28;20026;-75
2022/11/26 11:11:30;;;;;;;28.98;10.23;;;8.90;99.90;;;;;;4976509;28;20124;-75
2022/11/26 11:13:56;;;;;;;26.58;10.88;;;8.90;99.90;;;;;;4976485;28;20058;-75
2022/11/26 11:16:26;;;;;;;38.45;11.30;;;8.90;99.90;;;;;;4992781;28;20030;-78
2022/11/26 11:18:56;;;;;;;21.38;9.80;;;8.90;99.90;;;;;;5017456;28;20026;-78
2022/11/26 11:21:27;;;;;;;27.10;10.77;;;8.90;99.90;;;;;;4998007;28;20027;-77
2022/11/26 11:24:13;;;;;;;23.85;9.68;;;9.10;99.90;;;;;;4998510;28;20089;-76
2022/11/26 11:26:45;;;;;;;24.10;10.48;;;9.20;99.90;;;;;;4995683;28;20502;-75
2022/11/26 11:29:33;;;;;;;29.48;10.25;;;9.20;99.90;;;;;;4995740;28;20424;-75
2022/11/26 11:32:03;;;;;;;25.63;9.07;;;9.30;99.90;;;;;;4994449;28;20028;-76
2022/11/26 11:34:32;;;;;;;29.85;10.10;;;9.40;99.90;;;;;;4995771;28;20018;-75
2022/11/26 11:37:22;;;;;;;25.75;9.73;;;9.40;99.90;;;;;;4991750;28;20038;-76
2022/11/26 11:40:06;;;;;;;22.42;9.77;;;9.60;99.90;;;;;;4975925;28;20031;-76
2022/11/26 11:42:31;;;;;;;29.90;9.65;;;9.60;99.90;;;;;;4993961;28;20429;-76
2022/11/26 11:44:59;;;;;;;22.95;9.02;;;9.70;99.90;;;;;;4993739;28;20050;-75
2022/11/26 11:47:39;;;;;;;29.30;10.25;;;9.80;99.90;;;;;;4993576;28;20041;-76
2022/11/26 11:50:12;;;;;;;;;;;9.80;99.90;;;;;;4994757;28;20105;-75
2022/11/26 11:53:02;;;;;;;21.05;9.10;;;9.70;99.90;;;;;;4995258;28;19906;-75
2022/11/26 11:55:41;;;;;;;23.33;9.90;;;9.60;99.90;;;;;;5007682;28;20113;-76
2022/11/26 11:58:28;;;;;;;26.25;9.05;;;9.50;99.90;;;;;;5009499;28;20092;-75
2022/11/26 12:01:02;;;;;;;26.00;9.27;;;9.40;99.90;;;;;;4994676;28;20034;-75
2022/11/26 12:03:31;;;;;;;23.67;9.05;;;9.40;99.90;;;;;;4975328;28;20497;-75
2022/11/26 12:06:05;;;;;;;26.15;9.90;;;9.40;99.90;;;;;;4988962;28;20022;-76
2022/11/26 12:08:42;;;;;;;27.95;9.85;;;9.40;99.90;;;;;;5014237;28;20599;-75
2022/11/26 12:11:40;;;;;;;27.60;9.57;;;9.30;99.90;;;;;;5013266;28;20021;-76
2022/11/26 12:14:16;;;;;;;28.67;9.30;;;9.30;99.90;;;;;;4965859;28;20042;-78
2022/11/26 12:16:47;;;;;;;27.75;9.68;;;9.30;99.90;;;;;;4978124;28;20062;-78
2022/11/26 12:19:22;;;;;;;21.73;9.50;;;9.50;99.90;;;;;;5013326;28;20053;-78
2022/11/26 12:21:57;;;;;;;24.80;10.82;;;9.50;99.90;;;;;;5014727;28;20033;-76
2022/11/26 12:24:36;;;;;;;27.73;10.00;;;9.50;99.90;;;;;;5013663;28;20029;-75
2022/11/26 12:27:20;;;;;;;30.73;10.30;;;9.70;99.90;;;;;;4996340;28;20021;-76
2022/11/26 12:29:52;;;;;;;27.10;10.45;;;9.70;99.90;;;;;;5013912;28;20056;-75
2022/11/26 12:32:46;;;;;;;28.77;11.35;;;9.70;99.90;;;;;;4994207;28;20561;-75
2022/11/26 12:35:42;;;;;;;28.30;10.10;;;9.70;99.90;;;;;;4994327;28;20047;-75
2022/11/26 12:38:27;;;;;;;26.85;9.93;;;9.70;99.90;;;;;;4974591;28;20078;-75
2022/11/26 12:41:05;;;;;;;22.73;9.90;;;9.70;99.90;;;;;;4974858;28;20031;-75
2022/11/26 12:44:08;;;;;;;24.55;9.23;;;9.70;99.90;;;;;;4974727;28;20414;-75
2022/11/26 12:46:56;;;;;;;23.48;9.52;;;9.70;99.90;;;;;;4989334;28;20042;-75
2022/11/26 12:49:29;;;;;;;25.02;10.15;;;9.70;99.90;;;;;;4993897;28;20054;-75
2022/11/26 12:52:03;;;;;;;24.00;8.70;;;9.70;99.90;;;;;;4994072;28;20022;-76
2022/11/26 12:54:54;;;;;;;24.52;9.70;;;9.70;99.90;;;;;;4993925;28;20093;-75
2022/11/26 12:57:28;;;;;;;24.10;9.25;;;9.70;99.90;;;;;;4993750;28;20129;-75
2022/11/26 13:00:05;;;;;;;25.85;9.75;;;9.70;99.90;;;;;;4993658;28;20027;-75
2022/11/26 13:02:39;;;;;;;27.33;9.55;;;9.70;99.90;;;;;;4984315;28;20033;-75
2022/11/26 13:05:05;;;;;;;25.92;9.55;;;9.60;99.90;;;;;;4974443;28;20027;-75